Time;durP1;ratioP1;P1;durP2;ratioP2;P2;SDS_P1;SDS_P2;PMS_P1;PMS_P2;Temp;Humidity;BMP_temperature;BMP_pressure;BME280_temperature;BME280_humidity;BME280_pressure;Samples;Min_cycle;Max_cycle;Signal;HPM_P1;HPM_P2
2022/09/26 00:01:26;;;;;;;9.60;8.20;;;;;;;7.09;100.00;100021.72;5016574;28;20733;-71
2022/09/26 00:03:56;;;;;;;10.00;8.47;;;;;;;7.04;100.00;100020.94;5021467;28;20207;-71
2022/09/26 00:06:23;;;;;;;10.53;8.33;;;;;;;7.04;100.00;100023.53;5021248;28;20216;-71
2022/09/26 00:08:51;;;;;;;11.43;9.07;;;;;;;7.03;100.00;100029.59;5024850;28;20259;-69
2022/09/26 00:11:19;;;;;;;11.40;8.77;;;;;;;7.02;100.00;100027.91;5018147;28;20208;-71
2022/09/26 00:13:52;;;;;;;10.13;8.07;;;;;;;7.05;100.00;100021.78;5020373;28;20213;-69
2022/09/26 00:16:19;;;;;;;11.43;8.73;;;;;;;7.04;100.00;100028.72;5021022;28;20712;-71
2022/09/26 00:18:48;;;;;;;11.43;9.13;;;;;;;7.07;100.00;100020.00;5022730;28;20206;-71
2022/09/26 00:21:15;;;;;;;10.20;7.77;;;;;;;7.11;100.00;100022.53;5023336;28;20278;-71
2022/09/26 00:23:42;;;;;;;10.63;8.90;;;;;;;7.10;100.00;100018.22;5019605;28;20578;-70
2022/09/26 00:26:09;;;;;;;11.47;9.23;;;;;;;7.12;100.00;100020.78;5020453;28;20648;-70
2022/09/26 00:28:35;;;;;;;11.07;9.30;;;;;;;7.15;100.00;100024.16;5023842;28;20198;-71
2022/09/26 00:31:05;;;;;;;11.43;8.60;;;;;;;7.14;100.00;100027.66;5023701;28;20198;-71
2022/09/26 00:33:32;;;;;;;12.20;8.73;;;;;;;7.14;100.00;100043.22;5022408;28;20200;-71
2022/09/26 00:35:59;;;;;;;14.50;9.40;;;;;;;7.26;100.00;100033.44;5023612;28;20245;-71
2022/09/26 00:38:26;;;;;;;11.50;9.57;;;;;;;7.28;100.00;100034.25;5024346;28;20194;-70
2022/09/26 00:40:52;;;;;;;11.20;8.80;;;;;;;7.25;100.00;100026.56;5019502;28;20206;-71
2022/09/26 00:43:28;;;;;;;11.70;8.43;;;;;;;7.30;100.00;100032.47;5019338;28;20472;-71
2022/09/26 00:45:59;;;;;;;9.37;8.37;;;;;;;7.34;100.00;100031.53;5022606;28;20655;-69
2022/09/26 00:48:28;;;;;;;12.63;8.80;;;;;;;7.36;100.00;100022.81;5019797;28;20218;-71
2022/09/26 00:50:55;;;;;;;12.57;9.17;;;;;;;7.42;100.00;100018.38;5016089;28;20204;-69
2022/09/26 00:53:25;;;;;;;14.47;8.80;;;;;;;7.41;100.00;100017.53;5022418;28;20198;-70
2022/09/26 00:55:55;;;;;;;11.40;8.77;;;;;;;7.40;100.00;100018.41;5018881;28;20259;-71
2022/09/26 00:58:28;;;;;;;12.63;9.70;;;;;;;7.45;100.00;100021.75;5017184;28;20209;-69
2022/09/26 01:00:56;;;;;;;10.90;8.23;;;;;;;7.42;100.00;100020.97;5018352;28;20285;-71
2022/09/26 01:03:24;;;;;;;13.60;10.20;;;;;;;7.46;100.00;100026.06;5017947;28;20197;-71
2022/09/26 01:05:52;;;;;;;11.53;9.43;;;;;;;7.48;100.00;100026.03;5018195;28;20753;-70
2022/09/26 01:08:25;;;;;;;11.47;9.13;;;;;;;7.52;100.00;100018.13;5020411;28;20198;-70
2022/09/26 01:10:52;;;;;;;13.20;8.60;;;;;;;7.54;100.00;100015.50;5019753;28;20288;-71
2022/09/26 01:13:18;;;;;;;11.63;8.53;;;;;;;7.55;100.00;100012.88;5018635;28;20298;-71
2022/09/26 01:15:44;;;;;;;11.77;8.97;;;;;;;7.57;100.00;100011.09;5018081;28;20321;-71
2022/09/26 01:18:11;;;;;;;12.70;9.33;;;;;;;7.57;100.00;99998.13;5015125;28;20198;-71
2022/09/26 01:20:47;;;;;;;12.80;9.70;;;;;;;7.63;100.00;99999.72;5016744;28;20209;-71
2022/09/26 01:24:01;;;;;;;12.50;9.00;;;;;;;7.67;100.00;99987.53;5030672;28;20779;-69
2022/09/26 01:26:49;;;;;;;10.60;7.90;;;;;;;7.63;100.00;99985.91;4956959;28;20218;-70
2022/09/26 01:29:52;;;;;;;14.23;9.93;;;;;;;7.64;100.00;99979.84;5014175;28;20218;-70
2022/09/26 01:32:48;;;;;;;11.17;8.63;;;;;;;7.73;100.00;99983.03;5018001;28;20201;-70
2022/09/26 01:35:26;;;;;;;11.27;8.10;;;;;;;7.71;100.00;99976.19;5034607;28;20707;-71
2022/09/26 01:38:00;;;;;;;12.53;8.80;;;;;;;7.57;100.00;99971.34;5017808;28;20238;-71
2022/09/26 01:40:33;;;;;;;14.53;9.90;;;;;;;7.58;100.00;99975.63;5018630;28;20757;-71
2022/09/26 01:43:11;;;;;;;11.30;8.33;;;;;;;7.62;100.00;99963.47;5019381;28;20229;-70
2022/09/26 01:45:49;;;;;;;11.83;8.70;;;;;;;7.67;100.00;99962.44;5022063;28;20461;-69
2022/09/26 01:48:24;;;;;;;11.50;8.53;;;;;;;7.62;100.00;99956.53;5014641;28;20708;-71
2022/09/26 01:50:55;;;;;;;11.33;8.20;;;;;;;7.60;100.00;99960.91;5017569;28;20208;-69
2022/09/26 01:53:25;;;;;;;11.60;8.67;;;;;;;7.51;100.00;99958.50;5021803;28;20673;-70
2022/09/26 01:55:59;;;;;;;13.23;9.63;;;;;;;7.55;100.00;99966.19;5017669;28;20237;-70
2022/09/26 01:58:30;;;;;;;12.83;8.33;;;;;;;7.50;100.00;99968.03;5015073;28;20664;-71
2022/09/26 02:01:07;;;;;;;10.67;8.43;;;;;;;7.46;100.00;99957.75;5015343;28;20204;-70
2022/09/26 02:03:39;;;;;;;11.70;8.77;;;;;;;7.45;100.00;99969.03;5017122;28;20646;-69
2022/09/26 02:06:19;;;;;;;10.43;8.10;;;;;;;7.47;100.00;99965.50;5015851;28;20212;-72
2022/09/26 02:08:51;;;;;;;12.10;8.70;;;;;;;7.39;100.00;99964.88;4960211;28;20215;-69
2022/09/26 02:11:23;;;;;;;12.17;8.80;;;;;;;7.34;100.00;99961.53;4964987;28;20198;-71
2022/09/26 02:13:55;;;;;;;11.97;7.83;;;;;;;7.44;100.00;99968.19;4974724;28;20558;-70
2022/09/26 02:16:28;;;;;;;12.13;8.17;;;;;;;7.45;100.00;99964.69;4976768;28;20306;-71
2022/09/26 02:18:58;;;;;;;10.40;7.53;;;;;;;7.51;100.00;99961.97;4961697;28;20209;-70
2022/09/26 02:21:25;;;;;;;12.20;8.27;;;;;;;7.52;100.00;99961.06;4961323;28;20220;-70
2022/09/26 02:23:53;;;;;;;10.77;8.87;;;;;;;7.62;100.00;99955.69;4962797;28;20211;-69
2022/09/26 02:26:23;;;;;;;13.87;8.30;;;;;;;7.66;100.00;99957.28;4943805;28;20292;-71
2022/09/26 02:28:51;;;;;;;11.37;8.70;;;;;;;7.71;100.00;99956.28;4960279;28;20194;-70
2022/09/26 02:31:23;;;;;;;12.73;8.67;;;;;;;7.75;100.00;99959.66;4945705;28;20205;-71
2022/09/26 02:33:52;;;;;;;12.07;8.10;;;;;;;7.80;100.00;99957.81;4941990;28;20207;-71
2022/09/26 02:36:20;;;;;;;12.47;9.17;;;;;;;7.88;100.00;99957.59;4961804;28;20346;-70
2022/09/26 02:38:47;;;;;;;11.97;8.90;;;;;;;7.99;100.00;99955.59;4947839;28;20725;-68
2022/09/26 02:41:47;;;;;;;12.10;8.00;;;;;;;8.04;100.00;99956.31;4946022;28;20194;-70
2022/09/26 02:44:36;;;;;;;11.10;8.40;;;;;;;8.06;100.00;99940.72;4945818;28;20559;-71
2022/09/26 02:47:30;;;;;;;14.30;8.77;;;;;;;8.10;100.00;99943.16;4961058;28;20793;-71
2022/09/26 02:50:28;;;;;;;9.47;7.57;;;;;;;8.16;100.00;99944.72;4957807;28;20206;-70
2022/09/26 02:53:11;;;;;;;10.97;8.30;;;;;;;8.23;100.00;99946.31;4961708;28;20288;-69
2022/09/26 02:55:55;;;;;;;11.47;7.87;;;;;;;8.26;100.00;99947.94;4960107;28;20218;-71
2022/09/26 02:58:35;;;;;;;11.00;8.27;;;;;;;8.33;100.00;99949.47;4944556;28;20240;-71
2022/09/26 03:01:10;;;;;;;10.70;7.67;;;;;;;8.41;100.00;99949.25;4947577;28;20204;-69
2022/09/26 03:03:42;;;;;;;11.43;8.63;;;;;;;8.44;100.00;99946.63;4946424;28;20688;-70
2022/09/26 03:06:15;;;;;;;10.97;7.93;;;;;;;8.48;100.00;99948.25;4947696;28;20705;-71
2022/09/26 03:08:47;;;;;;;10.97;7.93;;;;;;;8.55;100.00;99946.31;4962877;28;20202;-71
2022/09/26 03:11:18;;;;;;;11.07;8.00;;;;;;;8.60;100.00;99937.50;4944757;28;20202;-71
2022/09/26 03:13:45;;;;;;;11.40;8.53;;;;;;;8.67;100.00;99938.16;4962178;28;20262;-70
2022/09/26 03:16:13;;;;;;;14.20;9.17;;;;;;;8.71;100.00;99935.44;4953527;28;20268;-70
2022/09/26 03:18:44;;;;;;;13.27;8.33;;;;;;;8.78;100.00;99936.13;4968154;28;20214;-69
2022/09/26 03:21:13;;;;;;;15.40;8.07;;;;;;;8.82;100.00;99935.13;4966936;28;20201;-71
2022/09/26 03:23:40;;;;;;;12.83;8.77;;;;;;;8.85;100.00;99931.59;4949973;28;20225;-69
2022/09/26 03:26:10;;;;;;;13.63;8.90;;;;;;;8.88;100.00;99928.88;4942165;28;20694;-70
2022/09/26 03:28:44;;;;;;;13.73;8.53;;;;;;;8.91;100.00;99927.03;4959751;28;20206;-70
2022/09/26 03:31:11;;;;;;;11.93;8.67;;;;;;;8.95;100.00;99929.53;4950335;28;20296;-70
2022/09/26 03:33:48;;;;;;;12.67;8.07;;;;;;;8.98;100.00;99924.25;4964006;28;20242;-71
2022/09/26 03:36:16;;;;;;;12.73;8.37;;;;;;;9.01;100.00;99924.16;4948741;28;20207;-69
2022/09/26 03:38:42;;;;;;;9.10;6.63;;;;;;;9.02;100.00;99924.13;4953481;28;20385;-72
2022/09/26 03:41:24;;;;;;;12.23;7.57;;;;;;;9.04;100.00;99914.53;4950419;28;21243;-72
2022/09/26 03:44:05;;;;;;;10.90;7.80;;;;;;;9.08;100.00;99916.13;4947294;28;20314;-71
2022/09/26 03:46:52;;;;;;;10.60;7.00;;;;;;;9.10;100.00;99916.91;4969105;28;20214;-71
2022/09/26 03:49:18;;;;;;;11.07;7.57;;;;;;;9.13;100.00;99929.00;4949401;28;20208;-71
2022/09/26 03:51:46;;;;;;;8.17;6.70;;;;;;;9.16;100.00;99920.22;4951342;28;20251;-71
2022/09/26 03:54:13;;;;;;;10.93;7.63;;;;;;;9.18;100.00;99921.03;4950661;28;20583;-71
2022/09/26 03:56:40;;;;;;;11.40;6.90;;;;;;;9.20;100.00;99922.69;4964165;28;20529;-70
2022/09/26 03:59:06;;;;;;;11.10;7.70;;;;;;;9.22;100.00;99927.84;4946788;28;20298;-70
2022/09/26 04:01:33;;;;;;;10.27;7.17;;;;;;;9.23;100.00;99930.41;4949048;28;21756;-71
2022/09/26 04:04:00;;;;;;;9.73;6.63;;;;;;;9.25;100.00;99931.22;4964652;28;21572;-71
2022/09/26 04:06:27;;;;;;;10.27;7.43;;;;;;;9.26;100.00;99929.44;4949702;28;20223;-70
2022/09/26 04:08:57;;;;;;;11.47;7.90;;;;;;;9.27;100.00;99926.81;4948899;28;20619;-70
2022/09/26 04:11:24;;;;;;;9.63;7.00;;;;;;;9.27;100.00;99926.81;4947944;28;20201;-71
2022/09/26 04:13:52;;;;;;;9.43;6.87;;;;;;;9.27;100.00;99928.56;4963761;28;20204;-70
2022/09/26 04:16:19;;;;;;;10.20;6.97;;;;;;;9.28;100.00;99925.03;4947611;28;20239;-70
2022/09/26 04:18:56;;;;;;;8.43;6.20;;;;;;;9.28;100.00;99920.69;4946741;28;20288;-69
2022/09/26 04:21:24;;;;;;;9.40;5.93;;;;;;;9.31;100.00;99927.56;4946980;28;20205;-71
2022/09/26 04:23:52;;;;;;;9.60;6.17;;;;;;;9.32;100.00;99912.78;4948070;28;20215;-70
2022/09/26 04:26:22;;;;;;;8.83;6.63;;;;;;;9.33;100.00;99906.69;4963754;28;20559;-70
2022/09/26 04:28:50;;;;;;;8.63;5.97;;;;;;;9.33;100.00;99904.94;4947937;28;20200;-69
2022/09/26 04:31:20;;;;;;;8.10;6.17;;;;;;;9.35;100.00;99903.13;4945371;28;20209;-71
2022/09/26 04:33:53;;;;;;;10.57;6.13;;;;;;;9.37;100.00;99911.72;4965423;28;20207;-69
2022/09/26 04:36:20;;;;;;;8.27;5.93;;;;;;;9.38;100.00;99900.44;4946014;28;20319;-71
2022/09/26 04:38:46;;;;;;;8.53;5.93;;;;;;;9.38;100.00;99897.84;4943530;28;20226;-70
2022/09/26 04:41:17;;;;;;;8.53;5.63;;;;;;;9.38;100.00;99895.22;4948628;28;20757;-70
2022/09/26 04:43:45;;;;;;;11.17;5.97;;;;;;;9.40;100.00;99895.19;4946565;28;20206;-70
2022/09/26 04:46:15;;;;;;;7.63;5.20;;;;;;;9.38;100.00;99897.00;4944305;28;20210;-71
2022/09/26 04:48:44;;;;;;;7.40;5.57;;;;;;;9.39;100.00;99896.94;4947274;28;20226;-71
2022/09/26 04:51:17;;;;;;;9.13;5.90;;;;;;;9.39;100.00;99893.47;4944061;28;20198;-71
2022/09/26 04:53:44;;;;;;;7.00;5.57;;;;;;;9.38;100.00;99892.63;4943822;28;20209;-71
2022/09/26 04:56:22;;;;;;;7.53;5.27;;;;;;;9.39;100.00;99893.47;4948400;28;20622;-71
2022/09/26 04:58:50;;;;;;;8.40;5.57;;;;;;;9.39;100.00;99890.88;4958116;28;21037;-70
2022/09/26 05:01:19;;;;;;;8.80;5.30;;;;;;;9.37;100.00;99890.91;4947568;28;20261;-71
2022/09/26 05:04:14;;;;;;;8.40;5.60;;;;;;;9.38;100.00;99890.03;4955303;28;20297;-70
2022/09/26 05:06:41;;;;;;;9.57;5.20;;;;;;;9.38;100.00;99889.19;4944031;28;20319;-70
2022/09/26 05:09:15;;;;;;;7.93;5.43;;;;;;;9.39;100.00;99889.13;4947199;28;20207;-70
2022/09/26 05:11:48;;;;;;;5.83;4.37;;;;;;;9.41;100.00;99886.47;4945576;28;20203;-71
2022/09/26 05:14:16;;;;;;;8.90;5.43;;;;;;;9.39;100.00;99883.94;4943664;28;20210;-71
2022/09/26 05:16:42;;;;;;;8.60;4.90;;;;;;;9.40;100.00;99879.56;4961066;28;20236;-71
2022/09/26 05:19:13;;;;;;;8.07;4.67;;;;;;;9.42;100.00;99882.97;4943024;28;20204;-71
2022/09/26 05:21:50;;;;;;;9.47;5.07;;;;;;;9.40;100.00;99884.78;4944969;28;20204;-70
2022/09/26 05:27:05;;;;;;;8.27;4.50;;;;;;;9.42;100.00;99880.38;4944916;28;20223;-71
2022/09/26 05:29:33;;;;;;;8.73;4.87;;;;;;;9.42;100.00;99888.19;4949882;28;20204;-72
2022/09/26 05:32:03;;;;;;;6.73;4.77;;;;;;;9.42;100.00;99888.19;4951401;28;20682;-72
2022/09/26 05:34:35;;;;;;;5.73;4.53;;;;;;;9.42;100.00;99893.38;4965942;28;20195;-70
2022/09/26 05:37:02;;;;;;;5.23;4.27;;;;;;;9.42;100.00;99890.78;4969537;28;20233;-71
2022/09/26 05:42:14;;;;;;;5.93;4.23;;;;;;;9.41;100.00;99908.16;4947538;28;20281;-71
2022/09/26 05:44:42;;;;;;;6.37;4.63;;;;;;;9.41;100.00;99902.94;4945360;28;20298;-71
2022/09/26 05:47:08;;;;;;;8.30;4.57;;;;;;;9.39;100.00;99909.09;4946526;28;20605;-70
2022/09/26 05:49:36;;;;;;;6.27;4.47;;;;;;;9.40;100.00;99898.63;4946095;28;20203;-71
2022/09/26 05:52:03;;;;;;;7.03;4.90;;;;;;;9.43;100.00;99902.91;4963070;28;20188;-70
2022/09/26 05:54:30;;;;;;;11.17;4.60;;;;;;;9.43;100.00;99902.91;4952325;28;20204;-69
2022/09/26 05:56:57;;;;;;;9.00;6.00;;;;;;;9.45;100.00;99898.50;4959155;28;20236;-69
2022/09/26 05:59:36;;;;;;;6.33;4.43;;;;;;;9.47;100.00;99900.13;4950652;28;20202;-69
2022/09/26 06:02:29;;;;;;;6.47;4.30;;;;;;;9.49;100.00;99900.06;4965998;28;20691;-70
2022/09/26 06:05:19;;;;;;;6.47;3.90;;;;;;;9.48;100.00;99894.03;4963161;28;20205;-70
2022/09/26 06:07:54;;;;;;;7.30;4.33;;;;;;;9.52;100.00;99886.97;4972287;28;20336;-70
2022/09/26 06:10:34;;;;;;;5.40;3.87;;;;;;;9.52;100.00;99897.38;4948198;28;20203;-69
2022/09/26 06:13:01;;;;;;;5.90;3.93;;;;;;;9.52;100.00;99897.38;4954697;28;20226;-70
2022/09/26 06:15:29;;;;;;;5.27;4.17;;;;;;;9.53;100.00;99904.28;4949958;28;20754;-70
2022/09/26 06:18:03;;;;;;;6.40;4.33;;;;;;;9.53;100.00;99906.88;4943751;28;20226;-70
2022/09/26 06:20:32;;;;;;;6.20;4.20;;;;;;;9.54;100.00;99900.78;4948407;28;20757;-70
2022/09/26 06:22:59;;;;;;;8.73;4.27;;;;;;;9.52;100.00;99904.34;4950755;28;20569;-69
2022/09/26 06:25:26;;;;;;;5.13;4.00;;;;;;;9.54;100.00;99905.13;4946575;28;20196;-70
2022/09/26 06:27:56;;;;;;;4.63;3.87;;;;;;;9.55;100.00;99906.81;4943227;28;20220;-70
2022/09/26 06:30:23;;;;;;;6.57;3.87;;;;;;;9.58;100.00;99914.53;4962831;28;20667;-69
2022/09/26 06:32:52;;;;;;;8.53;4.00;;;;;;;9.62;100.00;99917.00;4948963;28;20206;-70
2022/09/26 06:35:39;;;;;;;4.47;3.80;;;;;;;9.67;100.00;99911.63;4946470;28;20578;-70
2022/09/26 06:38:11;;;;;;;6.63;5.57;;;;;;;9.70;100.00;99913.28;4963540;28;20215;-69
2022/09/26 06:40:38;;;;;;;10.13;5.73;;;;;;;9.74;100.00;99912.28;4963513;28;20686;-70
2022/09/26 06:43:05;;;;;;;6.27;4.80;;;;;;;9.77;100.00;99907.81;4947570;28;20297;-69
2022/09/26 06:46:07;;;;;;;6.60;4.10;;;;;;;9.82;100.00;99905.06;4963256;28;20296;-70
2022/09/26 06:48:46;;;;;;;7.53;5.57;;;;;;;9.85;100.00;99899.75;4942194;28;20706;-70
2022/09/26 06:51:20;;;;;;;7.50;5.77;;;;;;;9.91;100.00;99901.28;4950141;28;20206;-70
2022/09/26 06:53:47;;;;;;;8.30;5.00;;;;;;;9.94;100.00;99890.78;4946117;28;20209;-68
2022/09/26 06:56:18;;;;;;;6.87;4.53;;;;;;;10.02;100.00;99892.16;4945827;28;20224;-69
2022/09/26 06:58:45;;;;;;;7.50;4.80;;;;;;;10.09;100.00;99892.81;4943636;28;20378;-70
2022/09/26 07:01:11;;;;;;;9.83;5.40;;;;;;;10.16;100.00;99889.06;4945894;28;20204;-70
2022/09/26 07:03:56;;;;;;;6.53;5.20;;;;;;;10.22;100.00;99891.47;4962634;28;20212;-70
2022/09/26 07:06:44;;;;;;;6.17;4.87;;;;;;;10.27;100.00;99883.47;4962368;28;20236;-71
2022/09/26 07:09:11;;;;;;;8.47;6.27;;;;;;;10.29;100.00;99883.41;4946283;28;20205;-71
2022/09/26 07:12:01;;;;;;;15.50;9.07;;;;;;;10.29;100.00;99881.69;4944697;28;20223;-70
2022/09/26 07:14:29;;;;;;;14.77;8.77;;;;;;;10.33;100.00;99887.66;4944743;28;20213;-70
2022/09/26 07:17:01;;;;;;;18.83;8.00;;;;;;;10.38;100.00;99890.94;4944485;28;20229;-71
2022/09/26 07:19:43;;;;;;;18.80;10.00;;;;;;;10.40;100.00;99884.75;4944070;28;20296;-70
2022/09/26 07:22:31;;;;;;;9.83;6.50;;;;;;;10.42;100.00;99887.31;4964123;28;20615;-70
2022/09/26 07:24:57;;;;;;;13.70;7.53;;;;;;;10.49;100.00;99887.94;4946885;28;20230;-70
2022/09/26 07:27:24;;;;;;;11.23;6.63;;;;;;;10.56;100.00;99884.19;4947042;28;20224;-70
2022/09/26 07:29:50;;;;;;;10.97;5.07;;;;;;;10.64;100.00;99882.16;4947619;28;20205;-70
2022/09/26 07:32:19;;;;;;;8.07;5.00;;;;;;;10.58;100.00;99875.41;4962760;28;20221;-70
2022/09/26 07:35:12;;;;;;;5.87;4.33;;;;;;;10.66;100.00;99885.56;4971224;28;20210;-70
2022/09/26 07:37:41;;;;;;;8.83;6.17;;;;;;;10.68;100.00;99880.28;4943979;28;20729;-69
2022/09/26 07:40:08;;;;;;;9.80;5.40;;;;;;;10.80;100.00;99871.97;4965361;28;20561;-69
2022/09/26 07:42:36;;;;;;;5.57;4.50;;;;;;;10.85;100.00;99872.63;4967628;28;20676;-70
2022/09/26 07:45:03;;;;;;;7.70;5.07;;;;;;;10.80;100.00;99872.81;4946690;28;20578;-70
2022/09/26 07:50:36;;;;;;;7.70;4.40;;;;;;;10.90;100.00;99875.06;4964606;28;20201;-70
2022/09/26 07:53:15;;;;;;;7.30;4.70;;;;;;;10.88;100.00;99875.13;4947277;28;20612;-70
2022/09/26 07:56:06;;;;;;;6.83;4.30;;;;;;;10.89;100.00;99876.00;4960085;28;20205;-69
2022/09/26 07:58:54;;;;;;;6.93;3.80;;;;;;;10.89;100.00;99873.38;4944515;28;20221;-70
2022/09/26 08:01:37;;;;;;;5.67;4.40;;;;;;;10.91;100.00;99875.00;4943241;28;20221;-69
2022/09/26 08:04:22;;;;;;;10.90;4.37;;;;;;;10.82;100.00;99875.38;4960674;28;20209;-69
2022/09/26 08:09:16;;;;;;;7.67;4.30;;;;;;;10.79;100.00;99884.16;4983166;28;20209;-71
2022/09/26 08:12:04;;;;;;;6.93;4.50;;;;;;;10.88;100.00;99874.28;4976379;28;20209;-71
2022/09/26 08:14:47;;;;;;;4.33;3.67;;;;;;;10.95;100.00;99881.78;4978986;28;20206;-71
2022/09/26 08:17:18;;;;;;;4.70;3.80;;;;;;;11.07;100.00;99875.25;4976418;28;20300;-71
2022/09/26 08:19:45;;;;;;;5.30;3.77;;;;;;;11.20;100.00;99877.34;4957513;28;20273;-71
2022/09/26 08:22:13;;;;;;;3.80;3.23;;;;;;;11.16;100.00;99871.41;4976243;28;20201;-71
2022/09/26 08:24:43;;;;;;;5.53;4.13;;;;;;;11.20;100.00;99869.53;4977811;28;20214;-71
2022/09/26 08:27:33;;;;;;;5.70;3.97;;;;;;;11.31;100.00;99867.31;4960103;28;20599;-71
2022/09/26 08:29:59;;;;;;;4.23;3.40;;;;;;;11.22;100.00;99870.31;4966402;28;20202;-71
2022/09/26 08:32:26;;;;;;;8.13;5.10;;;;;;;11.27;100.00;99870.97;4965118;28;20198;-71
2022/09/26 08:34:54;;;;;;;6.83;4.93;;;;;;;11.34;100.00;99861.97;4980585;28;20201;-71
2022/09/26 08:37:32;;;;;;;6.67;4.30;;;;;;;11.46;100.00;99869.31;4981546;28;20236;-71
2022/09/26 08:40:26;;;;;;;6.50;3.93;;;;;;;11.43;100.00;99864.19;4983757;28;20229;-71
2022/09/26 08:43:03;;;;;;;4.87;3.83;;;;;;;11.48;100.00;99861.41;4977083;28;20216;-71
2022/09/26 08:46:31;;;;;;;4.70;3.43;;;;;;;11.60;100.00;99866.13;4972010;28;20205;-71
2022/09/26 08:49:41;;;;;;;7.60;3.70;;;;;;;11.69;100.00;99863.09;4976847;28;20207;-71
2022/09/26 08:52:27;;;;;;;5.97;3.70;;;;;;;11.83;100.00;99865.13;4957139;28;20218;-71
2022/09/26 08:54:56;;;;;;;6.97;3.70;;;;;;;11.96;100.00;99862.88;4955304;28;20213;-71
2022/09/26 08:57:33;;;;;;;6.10;3.30;;;;;;;12.07;100.00;99865.00;4978628;28;20380;-71
2022/09/26 09:00:07;;;;;;;5.70;3.70;;;;;;;12.24;100.00;99854.66;4955515;28;20349;-71
2022/09/26 09:02:42;;;;;;;6.03;3.00;;;;;;;12.16;100.00;99861.97;4962761;28;20203;-71
2022/09/26 09:05:19;;;;;;;4.47;2.67;;;;;;;12.12;100.00;99861.28;4977230;28;20686;-71
2022/09/26 09:07:50;;;;;;;3.10;2.67;;;;;;;12.42;100.00;99852.13;4973802;28;20233;-71
2022/09/26 09:10:22;;;;;;;3.07;2.40;;;;;;;12.63;100.00;99845.88;4960840;28;20201;-71
2022/09/26 09:13:05;;;;;;;3.87;2.53;;;;;;;12.62;100.00;99844.19;4976596;28;20201;-71
2022/09/26 09:16:07;;;;;;;3.10;2.20;;;;;;;12.66;100.00;99837.91;4974779;28;20222;-71
2022/09/26 09:19:09;;;;;;;7.07;4.30;;;;;;;12.65;100.00;99845.81;4958678;28;20258;-71
2022/09/26 09:22:19;;;;;;;3.03;2.27;;;;;;;12.72;100.00;99839.38;4963518;28;20622;-71
2022/09/26 09:24:59;;;;;;;3.50;2.33;;;;;;;12.66;100.00;99837.03;4961196;28;20203;-71
2022/09/26 09:27:39;;;;;;;3.80;1.80;;;;;;;12.78;100.00;99835.63;4973880;28;20317;-71
2022/09/26 09:30:18;;;;;;;2.67;2.23;;;;;;;12.69;100.00;99835.13;4960349;28;20585;-71
2022/09/26 09:33:09;;;;;;;3.43;2.43;;;;;;;12.80;100.00;99833.75;4973996;28;20216;-71
2022/09/26 09:35:46;;;;;;;3.80;1.90;;;;;;;12.83;100.00;99838.84;4978202;28;20207;-71
2022/09/26 09:38:36;;;;;;;3.47;2.00;;;;;;;12.95;100.00;99835.66;4962952;28;20709;-71
2022/09/26 09:41:24;;;;;;;5.50;3.07;;;;;;;13.01;100.00;99829.25;4962142;28;20219;-71
2022/09/26 09:43:55;;;;;;;3.77;2.57;;;;;;;13.21;100.00;99831.75;4955553;28;20205;-71
2022/09/26 09:46:27;;;;;;;2.97;2.60;;;;;;;13.38;100.00;99830.09;4960540;28;20206;-71
2022/09/26 09:48:59;;;;;;;6.10;3.60;;;;;;;13.54;100.00;99833.63;4957101;28;20231;-71
2022/09/26 09:51:37;;;;;;;6.33;3.60;;;;;;;13.69;100.00;99831.16;4975513;28;20200;-71
2022/09/26 09:54:23;;;;;;;3.33;2.37;;;;;;;13.80;100.00;99829.66;4964120;28;20200;-71
2022/09/26 09:57:02;;;;;;;4.90;3.03;;;;;;;13.80;100.00;99836.69;4963266;28;20202;-71
2022/09/26 09:59:54;;;;;;;4.53;2.77;;;;;;;13.93;100.00;99836.88;4961459;28;20352;-71
2022/09/26 10:02:31;;;;;;;5.93;4.13;;;;;;;13.94;100.00;99833.34;4964410;28;20215;-71
2022/09/26 10:05:15;;;;;;;7.50;3.80;;;;;;;14.01;100.00;99829.47;4975196;28;20205;-71
2022/09/26 10:07:43;;;;;;;2.70;2.00;;;;;;;14.11;100.00;99825.44;4960241;28;20520;-71
2022/09/26 10:10:40;;;;;;;2.10;1.87;;;;;;;14.18;100.00;99823.34;4976230;28;20352;-71
2022/09/26 10:13:30;;;;;;;3.43;2.10;;;;;;;14.32;100.00;99820.81;4980220;28;20364;-71
2022/09/26 10:16:14;;;;;;;1.90;1.70;;;;;;;14.42;100.00;99820.28;4954857;28;20202;-71
2022/09/26 10:18:59;;;;;;;3.87;1.90;;;;;;;14.29;100.00;99815.72;4961243;28;20319;-71
2022/09/26 10:21:31;;;;;;;2.67;1.70;;;;;;;14.19;100.00;99804.03;4973220;28;20205;-71
2022/09/26 10:24:00;;;;;;;2.80;1.70;;;;;;;13.93;100.00;99802.81;4962704;28;20237;-71
2022/09/26 10:26:43;;;;;;;9.40;4.90;;;;;;;13.83;100.00;99792.00;4954082;28;20201;-71
2022/09/26 10:29:23;;;;;;;6.50;3.53;;;;;;;13.80;100.00;99784.28;4959798;28;20753;-71
2022/09/26 10:31:55;;;;;;;1.90;1.20;;;;;;;13.71;100.00;99790.84;4958992;28;20251;-71
2022/09/26 10:34:26;;;;;;;2.77;1.30;;;;;;;13.79;100.00;99798.28;4954785;28;20571;-71
2022/09/26 10:36:54;;;;;;;3.80;1.53;;;;;;;14.02;100.00;99789.25;4958219;28;20331;-71
2022/09/26 10:42:15;;;;;;;2.37;1.40;;;;;;;14.46;100.00;99796.44;4948739;28;20284;-71
2022/09/26 10:44:42;;;;;;;2.23;1.60;;;;;;;14.63;100.00;99787.66;4956917;28;20262;-71
2022/09/26 10:47:24;;;;;;;2.33;1.77;;;;;;;14.63;100.00;99789.44;4972665;28;20228;-71
2022/09/26 10:50:15;;;;;;;2.20;1.90;;;;;;;14.44;100.00;99792.22;4975783;28;20831;-71
2022/09/26 10:53:05;;;;;;;4.03;2.40;;;;;;;14.18;100.00;99794.50;4978612;28;20259;-71
2022/09/26 10:55:37;;;;;;;1.97;1.70;;;;;;;14.13;100.00;99794.75;4974235;28;20207;-71
2022/09/26 10:58:08;;;;;;;2.50;1.67;;;;;;;14.10;100.00;99794.91;4956440;28;20337;-71
2022/09/26 11:00:38;;;;;;;2.43;1.87;;;;;;;14.32;100.00;99775.41;4957357;28;20204;-71
2022/09/26 11:03:15;;;;;;;2.10;1.73;;;;;;;14.51;100.00;99778.69;4959417;28;20208;-71
2022/09/26 11:06:03;;;;;;;2.30;1.50;;;;;;;14.76;100.00;99782.59;4968895;28;20209;-71
2022/09/26 11:08:34;;;;;;;4.53;1.70;;;;;;;14.98;100.00;99783.97;4973589;28;20745;-70
2022/09/26 11:11:37;;;;;;;2.30;1.70;;;;;;;15.01;100.00;99786.41;4968787;28;20202;-71
2022/09/26 11:14:07;;;;;;;3.37;1.93;;;;;;;14.84;100.00;99784.75;4956686;28;20397;-71
2022/09/26 11:16:50;;;;;;;4.40;2.00;;;;;;;14.58;100.00;99769.56;4957156;28;20378;-71
2022/09/26 11:19:31;;;;;;;4.90;2.07;;;;;;;14.66;100.00;99768.28;4975259;28;20461;-71
2022/09/26 11:22:10;;;;;;;4.60;1.57;;;;;;;14.89;100.00;99769.59;4961680;28;20207;-71
2022/09/26 11:24:45;;;;;;;3.03;1.47;;;;;;;15.13;100.00;99762.09;4976141;28;20201;-71
2022/09/26 11:27:22;;;;;;;2.80;1.60;;;;;;;15.26;100.00;99762.19;4975435;28;20227;-71
2022/09/26 11:29:54;;;;;;;2.03;1.63;;;;;;;15.46;100.00;99761.00;4969886;28;20192;-71
2022/09/26 11:32:29;;;;;;;2.30;1.90;;;;;;;15.31;100.00;99747.00;4980624;28;20205;-71
2022/09/26 11:35:01;;;;;;;2.80;1.67;;;;;;;15.43;100.00;99756.78;4972260;28;20205;-71
2022/09/26 11:37:57;;;;;;;2.40;1.80;;;;;;;15.61;100.00;99752.19;4953869;28;20229;-71
2022/09/26 11:40:37;;;;;;;2.50;1.87;;;;;;;15.73;100.00;99742.72;4970923;28;20201;-71
2022/09/26 11:43:37;;;;;;;4.40;2.10;;;;;;;15.79;100.00;99741.53;4963695;28;20216;-71
2022/09/26 11:46:26;;;;;;;3.17;1.73;;;;;;;15.70;100.00;99735.84;4971466;28;20319;-71
2022/09/26 11:49:11;;;;;;;2.10;1.80;;;;;;;15.81;100.00;99732.63;4972386;28;20232;-71
2022/09/26 11:52:29;;;;;;;5.57;1.80;;;;;;;15.84;100.00;99735.03;4972653;28;20214;-71
2022/09/26 11:55:11;;;;;;;2.63;1.90;;;;;;;15.84;100.00;99731.56;4970030;28;20214;-71
2022/09/26 11:57:43;;;;;;;2.10;1.40;;;;;;;15.99;100.00;99713.97;4974015;28;20232;-70
2022/09/26 12:00:23;;;;;;;1.93;1.73;;;;;;;15.93;100.00;99709.97;4978431;28;20222;-70
2022/09/26 12:03:08;;;;;;;1.57;1.40;;;;;;;15.84;100.00;99713.19;4982072;28;20782;-71
2022/09/26 12:05:44;;;;;;;4.30;1.90;;;;;;;15.70;100.00;99706.13;4964753;28;20212;-71
2022/09/26 12:08:29;;;;;;;1.67;1.50;;;;;;;15.55;100.00;99710.56;4976726;28;20247;-70
2022/09/26 12:11:08;;;;;;;3.47;2.13;;;;;;;15.49;100.00;99710.91;4974263;28;20201;-71
2022/09/26 12:13:45;;;;;;;4.83;3.20;;;;;;;15.52;100.00;99703.69;4975857;28;20202;-70
2022/09/26 12:16:20;;;;;;;3.40;2.00;;;;;;;15.48;100.00;99696.09;4958485;28;20231;-70
2022/09/26 12:18:58;;;;;;;1.70;1.60;;;;;;;15.42;100.00;99702.56;4978761;28;20702;-70